Time;durP1;ratioP1;P1;durP2;ratioP2;P2;SDS_P1;SDS_P2;PMS_P1;PMS_P2;Temp;Humidity;BMP_temperature;BMP_pressure;BME280_temperature;BME280_humidity;BME280_pressure;Samples;Min_cycle;Max_cycle;Signal;HPM_P1;HPM_P2
2021/09/06 00:02:09;;;;;;;16.97;15.27;;;21.90;99.30;;;;;;6064874;23;20889;-81
2021/09/06 00:04:57;;;;;;;16.27;14.63;;;21.90;99.80;;;;;;6037688;23;20520;-82
2021/09/06 00:08:22;;;;;;;16.63;14.70;;;21.70;99.90;;;;;;6041908;23;20441;-81
2021/09/06 00:11:21;;;;;;;16.70;15.07;;;21.80;99.90;;;;;;6039316;23;20417;-80
2021/09/06 00:14:31;;;;;;;;;;;;;;;;;;;;;
2021/09/06 00:17:40;;;;;;;;;;;;;;;;;;;;;
2021/09/06 00:21:11;;;;;;;19.40;15.73;;;21.60;99.90;;;;;;6146879;23;20473;-81
2021/09/06 00:24:07;;;;;;;15.67;14.13;;;21.60;99.90;;;;;;6157775;23;20438;-80
2021/09/06 00:26:42;;;;;;;17.47;15.77;;;21.60;99.90;;;;;;6181903;23;20449;-81
2021/09/06 00:29:09;;;;;;;16.40;14.70;;;21.60;99.90;;;;;;6180996;23;20428;-81
2021/09/06 00:31:38;;;;;;;17.10;15.50;;;21.80;99.60;;;;;;6156625;23;20414;-81
2021/09/06 00:34:05;;;;;;;16.00;14.30;;;21.80;99.20;;;;;;6180624;23;20434;-80
2021/09/06 00:36:34;;;;;;;16.50;14.80;;;21.70;99.00;;;;;;6155927;23;20413;-82
2021/09/06 00:39:01;;;;;;;16.97;15.30;;;21.50;99.50;;;;;;6180177;23;21039;-78
2021/09/06 00:41:28;;;;;;;15.80;14.20;;;21.40;99.90;;;;;;6180854;23;20703;-82
2021/09/06 00:43:56;;;;;;;17.40;15.67;;;21.40;99.90;;;;;;6153303;23;20513;-81
2021/09/06 00:46:26;;;;;;;16.00;14.50;;;21.40;99.90;;;;;;6154276;23;20413;-81
2021/09/06 00:48:53;;;;;;;17.00;15.20;;;21.40;99.90;;;;;;6155086;23;20501;-82
2021/09/06 00:51:21;;;;;;;16.60;14.90;;;21.30;99.90;;;;;;6156745;23;20467;-80
2021/09/06 00:53:48;;;;;;;16.50;14.80;;;21.30;99.90;;;;;;6154900;23;20462;-79
2021/09/06 00:56:15;;;;;;;17.37;15.77;;;21.20;99.90;;;;;;6160026;23;20433;-81
2021/09/06 00:58:44;;;;;;;17.17;15.40;;;21.20;99.90;;;;;;6153605;23;20453;-82
2021/09/06 01:01:11;;;;;;;14.97;13.30;;;21.20;99.90;;;;;;6180368;23;20413;-81
2021/09/06 01:03:38;;;;;;;16.53;14.10;;;21.20;99.90;;;;;;6156661;23;20417;-80
2021/09/06 01:06:05;;;;;;;16.10;14.47;;;21.20;99.90;;;;;;6156694;23;20410;-80
2021/09/06 01:08:33;;;;;;;15.57;13.57;;;21.20;99.90;;;;;;6182710;23;20932;-80
2021/09/06 01:11:00;;;;;;;16.90;15.10;;;21.20;99.90;;;;;;6156757;23;20468;-81
2021/09/06 01:13:28;;;;;;;15.77;14.23;;;21.20;99.90;;;;;;6179285;23;20500;-82
2021/09/06 01:15:55;;;;;;;15.33;13.73;;;21.20;99.90;;;;;;6154322;23;20440;-81
2021/09/06 01:18:22;;;;;;;16.13;14.43;;;21.10;99.90;;;;;;6153639;23;20417;-81
2021/09/06 01:20:50;;;;;;;17.23;13.67;;;21.20;99.90;;;;;;6178804;23;20379;-81
2021/09/06 01:23:17;;;;;;;15.90;14.20;;;21.30;99.90;;;;;;6153155;23;20420;-81
2021/09/06 01:25:48;;;;;;;15.90;14.30;;;21.20;99.90;;;;;;6154705;23;20434;-80
2021/09/06 01:28:16;;;;;;;16.17;14.47;;;21.30;99.90;;;;;;6153799;23;20434;-80
2021/09/06 01:30:43;;;;;;;14.30;12.90;;;21.10;99.90;;;;;;6152024;23;20414;-82
2021/09/06 01:33:11;;;;;;;16.57;13.73;;;21.00;99.90;;;;;;6157588;23;20765;-80
2021/09/06 01:35:38;;;;;;;19.03;14.27;;;20.90;99.90;;;;;;6155762;23;20433;-80
2021/09/06 01:38:05;;;;;;;14.93;13.43;;;20.70;99.90;;;;;;6153685;23;20410;-79
2021/09/06 01:40:34;;;;;;;16.00;13.90;;;20.70;99.90;;;;;;6156707;23;20441;-81
2021/09/06 01:43:01;;;;;;;15.87;13.90;;;20.70;99.90;;;;;;6158780;23;20470;-80
2021/09/06 01:45:29;;;;;;;14.80;13.23;;;20.70;99.90;;;;;;6157930;23;20546;-80
2021/09/06 01:47:56;;;;;;;15.83;14.17;;;20.70;99.90;;;;;;6158886;23;20414;-80
2021/09/06 01:50:24;;;;;;;15.70;14.10;;;20.60;99.90;;;;;;6176797;23;21090;-83
2021/09/06 01:52:51;;;;;;;16.33;14.63;;;20.80;99.90;;;;;;6167404;23;20422;-80
2021/09/06 01:55:19;;;;;;;15.57;13.90;;;20.70;99.90;;;;;;6157201;23;20438;-81
2021/09/06 01:57:46;;;;;;;15.60;14.00;;;20.60;99.90;;;;;;6155072;23;20413;-81
2021/09/06 02:00:15;;;;;;;15.67;14.10;;;20.30;99.90;;;;;;6158705;23;20442;-81
2021/09/06 02:02:42;;;;;;;16.80;13.27;;;20.00;99.90;;;;;;6155580;23;20410;-80
2021/09/06 02:05:11;;;;;;;16.53;14.80;;;19.90;99.90;;;;;;6156326;23;20438;-83
2021/09/06 02:07:39;;;;;;;15.30;13.80;;;19.80;99.90;;;;;;6134452;23;20414;-80
2021/09/06 02:10:07;;;;;;;15.93;13.80;;;19.70;99.90;;;;;;6158641;23;20417;-82
2021/09/06 02:12:34;;;;;;;15.80;14.10;;;19.70;99.90;;;;;;6155262;23;20417;-80
2021/09/06 02:15:02;;;;;;;17.10;15.03;;;19.70;99.90;;;;;;6159641;23;21021;-81
2021/09/06 02:17:30;;;;;;;15.77;13.90;;;19.80;99.90;;;;;;6156594;23;20413;-81
2021/09/06 02:19:57;;;;;;;13.90;12.60;;;19.70;99.90;;;;;;6156697;23;20445;-81
2021/09/06 02:22:24;;;;;;;16.40;14.70;;;19.70;99.90;;;;;;6158710;23;20425;-81
2021/09/06 02:24:51;;;;;;;17.23;15.43;;;19.60;99.90;;;;;;6155696;23;20468;-81
2021/09/06 02:27:18;;;;;;;16.20;13.50;;;19.60;99.90;;;;;;6183472;23;20909;-81
2021/09/06 02:29:45;;;;;;;14.63;13.13;;;19.60;99.90;;;;;;6182290;23;20422;-81
2021/09/06 02:32:13;;;;;;;15.13;13.53;;;19.60;99.90;;;;;;6153381;23;20420;-82
2021/09/06 02:34:40;;;;;;;16.47;13.10;;;19.70;99.90;;;;;;6152126;23;20465;-81
2021/09/06 02:37:07;;;;;;;14.00;12.60;;;19.70;99.90;;;;;;6153941;23;21118;-82
2021/09/06 02:39:36;;;;;;;15.63;14.03;;;19.70;99.90;;;;;;6152750;23;20446;-82
2021/09/06 02:42:04;;;;;;;15.63;13.27;;;19.70;99.90;;;;;;6179155;23;20433;-82
2021/09/06 02:44:31;;;;;;;15.00;13.10;;;19.80;99.90;;;;;;6151328;23;20442;-79
2021/09/06 02:47:01;;;;;;;13.27;11.97;;;19.80;99.90;;;;;;6154121;23;20437;-82
2021/09/06 02:49:28;;;;;;;14.17;12.67;;;19.80;99.90;;;;;;6179675;23;20508;-81
2021/09/06 02:51:55;;;;;;;15.67;14.07;;;19.80;99.90;;;;;;6154688;23;20414;-80
2021/09/06 02:54:22;;;;;;;16.50;14.30;;;19.90;99.90;;;;;;6152708;23;20441;-80
2021/09/06 02:56:49;;;;;;;15.00;13.53;;;19.80;99.90;;;;;;6177036;23;20421;-79
2021/09/06 02:59:16;;;;;;;16.97;14.63;;;20.00;99.90;;;;;;6151029;23;20446;-80
2021/09/06 03:01:43;;;;;;;14.50;13.00;;;20.00;99.90;;;;;;6154408;23;20413;-80
2021/09/06 03:04:11;;;;;;;15.03;13.43;;;19.90;99.90;;;;;;6152975;23;20430;-79
2021/09/06 03:06:38;;;;;;;15.83;13.60;;;19.70;99.90;;;;;;6158617;23;20524;-79
2021/09/06 03:09:05;;;;;;;15.20;13.60;;;19.60;99.90;;;;;;6177003;23;20578;-80
2021/09/06 03:11:32;;;;;;;16.23;14.53;;;19.60;99.90;;;;;;6164881;23;20448;-81
2021/09/06 03:13:59;;;;;;;15.03;13.50;;;19.70;99.90;;;;;;6157471;23;20433;-81
2021/09/06 03:16:27;;;;;;;14.13;12.77;;;19.70;99.90;;;;;;6155350;23;20417;-81
2021/09/06 03:18:54;;;;;;;15.30;13.60;;;19.70;99.90;;;;;;6153738;23;20418;-79
2021/09/06 03:21:21;;;;;;;14.93;13.33;;;19.60;99.90;;;;;;6179328;23;21342;-80
2021/09/06 03:23:51;;;;;;;15.63;13.80;;;19.60;99.90;;;;;;6151558;23;20465;-80
2021/09/06 03:26:19;;;;;;;14.90;13.30;;;19.60;99.90;;;;;;6153106;23;20416;-79
2021/09/06 03:28:46;;;;;;;15.97;13.60;;;19.40;99.90;;;;;;6151535;23;20418;-79
2021/09/06 03:31:14;;;;;;;16.47;14.07;;;19.30;99.90;;;;;;6176665;23;20909;-80
2021/09/06 03:33:41;;;;;;;16.10;13.90;;;19.30;99.90;;;;;;6167997;23;20420;-80
2021/09/06 03:36:08;;;;;;;17.50;14.60;;;19.20;99.90;;;;;;6176831;23;20434;-81
2021/09/06 03:38:35;;;;;;;18.33;14.70;;;19.20;99.90;;;;;;6174555;23;20409;-80
2021/09/06 03:41:03;;;;;;;18.50;13.73;;;19.10;99.90;;;;;;6164556;23;20441;-78
2021/09/06 03:43:29;;;;;;;15.37;13.77;;;19.00;99.90;;;;;;6155356;23;20418;-80
2021/09/06 03:45:57;;;;;;;18.73;13.57;;;19.00;99.90;;;;;;6167352;23;20401;-80
2021/09/06 03:48:24;;;;;;;17.37;14.17;;;18.90;99.90;;;;;;6177785;23;20429;-81
2021/09/06 03:50:51;;;;;;;14.30;12.60;;;18.80;99.90;;;;;;6179143;23;20431;-79
2021/09/06 03:53:17;;;;;;;15.13;13.53;;;18.70;99.90;;;;;;6204409;23;20420;-81
2021/09/06 03:55:44;;;;;;;18.10;13.90;;;18.70;99.90;;;;;;6193682;23;20422;-80
2021/09/06 03:58:10;;;;;;;14.93;13.20;;;18.80;99.90;;;;;;6153823;23;20414;-81
2021/09/06 04:00:37;;;;;;;15.87;14.17;;;18.80;99.90;;;;;;6153365;23;20452;-80
2021/09/06 04:03:04;;;;;;;15.13;13.40;;;18.90;99.90;;;;;;6149476;23;20440;-80
2021/09/06 04:05:31;;;;;;;17.07;13.20;;;18.80;99.90;;;;;;6180499;23;20516;-82
2021/09/06 04:07:58;;;;;;;17.40;14.43;;;18.70;99.90;;;;;;6180258;23;20415;-81
2021/09/06 04:10:24;;;;;;;15.87;14.17;;;18.60;99.90;;;;;;6180751;23;20414;-81
2021/09/06 04:12:51;;;;;;;14.20;12.50;;;18.70;99.90;;;;;;6180592;23;20429;-81
2021/09/06 04:15:18;;;;;;;17.17;13.77;;;18.80;99.90;;;;;;6181375;23;20441;-80
2021/09/06 04:17:45;;;;;;;16.37;13.60;;;18.70;99.90;;;;;;6153438;23;20703;-81
2021/09/06 04:20:12;;;;;;;17.70;15.30;;;18.70;99.90;;;;;;6179755;23;20448;-81
2021/09/06 04:22:39;;;;;;;18.13;15.20;;;18.90;99.90;;;;;;6151327;23;20410;-81
2021/09/06 04:25:08;;;;;;;17.53;14.70;;;18.90;99.90;;;;;;6151631;23;20820;-82
2021/09/06 04:27:36;;;;;;;18.97;15.03;;;19.00;99.90;;;;;;6150840;23;20413;-81
2021/09/06 04:30:05;;;;;;;18.60;15.23;;;18.80;99.90;;;;;;6151597;23;20421;-81
2021/09/06 04:32:32;;;;;;;18.20;15.30;;;18.60;99.90;;;;;;6152462;23;20445;-82
2021/09/06 04:34:59;;;;;;;16.57;14.83;;;18.60;99.90;;;;;;6177038;23;20438;-82
2021/09/06 04:37:26;;;;;;;17.10;14.70;;;18.60;99.90;;;;;;6151565;23;20449;-81
2021/09/06 04:39:53;;;;;;;19.63;14.13;;;18.60;99.90;;;;;;6175800;23;20489;-81
2021/09/06 04:42:19;;;;;;;20.80;15.97;;;18.50;99.90;;;;;;6178910;23;20406;-81
2021/09/06 04:44:46;;;;;;;23.87;15.13;;;18.40;99.90;;;;;;6175666;23;20428;-79
2021/09/06 04:47:14;;;;;;;23.70;14.83;;;18.30;99.90;;;;;;6178815;23;20412;-82
2021/09/06 04:49:41;;;;;;;23.40;16.90;;;18.30;99.90;;;;;;6182266;23;20901;-79
2021/09/06 04:52:22;;;;;;;21.23;16.60;;;18.30;99.90;;;;;;6181887;23;20390;-81
2021/09/06 04:54:49;;;;;;;19.60;15.60;;;18.40;99.90;;;;;;6182280;23;20434;-81
2021/09/06 04:57:16;;;;;;;18.73;14.73;;;18.20;99.90;;;;;;6183115;23;20420;-81
2021/09/06 04:59:42;;;;;;;22.17;15.27;;;18.30;99.90;;;;;;6151361;23;20446;-82
2021/09/06 05:02:09;;;;;;;17.80;14.43;;;18.30;99.90;;;;;;6152597;23;20410;-81
2021/09/06 05:04:36;;;;;;;21.03;15.43;;;18.20;99.90;;;;;;6178491;23;20444;-81
2021/09/06 05:07:03;;;;;;;19.20;14.53;;;18.20;99.90;;;;;;6177218;23;20485;-81
2021/09/06 05:09:30;;;;;;;21.50;15.87;;;18.00;99.90;;;;;;6151387;23;20904;-81
2021/09/06 05:11:57;;;;;;;18.20;14.63;;;18.10;99.90;;;;;;6151962;23;20424;-82
2021/09/06 05:14:24;;;;;;;17.77;14.17;;;18.20;99.90;;;;;;6175140;23;20762;-81
2021/09/06 05:16:50;;;;;;;16.00;13.53;;;18.10;99.90;;;;;;6152111;23;20413;-80
2021/09/06 05:19:17;;;;;;;17.53;14.17;;;18.00;99.90;;;;;;6178358;23;20425;-82
2021/09/06 05:21:44;;;;;;;15.20;12.77;;;17.90;99.90;;;;;;6177004;23;20405;-80
2021/09/06 05:24:10;;;;;;;17.93;15.03;;;17.90;99.90;;;;;;6176894;23;20432;-80
2021/09/06 05:26:37;;;;;;;18.20;14.90;;;17.90;99.90;;;;;;6177300;23;20458;-79
2021/09/06 05:29:03;;;;;;;23.23;15.97;;;18.00;99.90;;;;;;6176901;23;20516;-80
2021/09/06 05:31:30;;;;;;;23.47;16.20;;;18.00;99.90;;;;;;6150819;23;20424;-80
2021/09/06 05:33:57;;;;;;;25.33;16.67;;;18.10;99.90;;;;;;6175714;23;21190;-81
2021/09/06 05:36:24;;;;;;;18.53;14.23;;;18.10;99.90;;;;;;6151722;23;20414;-81
2021/09/06 05:38:51;;;;;;;16.60;12.70;;;18.00;99.90;;;;;;6175983;23;20421;-82
2021/09/06 05:41:20;;;;;;;15.17;13.67;;;18.00;99.90;;;;;;6153475;23;20441;-81
2021/09/06 05:43:48;;;;;;;18.60;14.60;;;18.10;99.90;;;;;;6152471;23;20988;-81
2021/09/06 05:46:15;;;;;;;17.90;14.83;;;18.30;99.90;;;;;;6153918;23;20460;-81
2021/09/06 05:48:42;;;;;;;16.90;14.00;;;18.40;99.90;;;;;;6152243;23;20925;-80
2021/09/06 05:51:09;;;;;;;16.37;14.60;;;18.30;99.90;;;;;;6182600;23;20716;-83
2021/09/06 05:53:36;;;;;;;14.57;12.83;;;18.40;99.90;;;;;;6180668;23;20415;-83
2021/09/06 05:56:03;;;;;;;15.90;13.43;;;18.50;99.90;;;;;;6153911;23;20951;-82
2021/09/06 05:58:29;;;;;;;19.37;14.43;;;18.70;99.90;;;;;;6179901;23;20418;-80
2021/09/06 06:00:57;;;;;;;16.00;13.73;;;18.60;99.90;;;;;;6180314;23;20913;-83
2021/09/06 06:03:26;;;;;;;15.07;12.70;;;18.60;99.90;;;;;;6153877;23;20406;-81
2021/09/06 06:05:53;;;;;;;15.13;13.00;;;18.70;99.90;;;;;;6180772;23;20529;-80
2021/09/06 06:08:20;;;;;;;16.53;13.10;;;19.60;99.90;;;;;;6179321;23;20488;-81
2021/09/06 06:10:47;;;;;;;15.70;13.30;;;21.40;99.90;;;;;;6181263;23;20421;-82
2021/09/06 06:13:15;;;;;;;14.63;12.70;;;22.90;96.10;;;;;;6178022;23;20421;-82
2021/09/06 06:15:42;;;;;;;17.03;12.20;;;23.80;93.40;;;;;;6152730;23;20433;-82
2021/09/06 06:18:28;;;;;;;15.80;13.87;;;24.30;92.00;;;;;;6157408;23;20389;-82
2021/09/06 06:20:55;;;;;;;16.17;13.50;;;25.00;90.70;;;;;;6152795;23;20861;-83
2021/09/06 06:23:21;;;;;;;15.73;12.57;;;25.50;89.00;;;;;;6150659;23;20417;-82
2021/09/06 06:25:48;;;;;;;17.20;12.80;;;25.80;86.70;;;;;;6180662;23;20431;-81
2021/09/06 06:28:15;;;;;;;16.20;13.40;;;26.00;85.60;;;;;;6179244;23;20421;-82
2021/09/06 06:30:42;;;;;;;14.63;12.17;;;26.30;83.70;;;;;;6152037;23;20493;-83
2021/09/06 06:33:09;;;;;;;16.30;11.93;;;26.60;82.20;;;;;;6154428;23;20390;-82
2021/09/06 06:35:37;;;;;;;13.63;12.30;;;27.10;80.80;;;;;;6178586;23;20430;-83
2021/09/06 06:38:05;;;;;;;14.57;13.17;;;27.70;76.70;;;;;;6179999;23;20414;-83
2021/09/06 06:40:32;;;;;;;14.47;12.50;;;27.80;75.10;;;;;;6154682;23;20444;-80
2021/09/06 06:42:58;;;;;;;14.80;13.03;;;28.20;73.50;;;;;;6154398;23;20413;-79
2021/09/06 06:45:25;;;;;;;14.10;12.73;;;28.50;71.50;;;;;;6178593;23;20971;-79
2021/09/06 06:47:52;;;;;;;13.40;12.00;;;28.80;71.70;;;;;;6181523;23;20413;-81
2021/09/06 06:50:21;;;;;;;13.30;12.10;;;29.50;68.10;;;;;;6176565;23;20421;-83
2021/09/06 06:52:48;;;;;;;16.70;12.70;;;29.30;66.80;;;;;;6178210;23;20409;-81
2021/09/06 06:55:14;;;;;;;14.17;12.67;;;28.90;67.90;;;;;;6152559;23;21115;-80
2021/09/06 06:57:41;;;;;;;15.53;13.70;;;28.10;68.90;;;;;;6151886;23;20406;-81
2021/09/06 07:00:08;;;;;;;15.60;14.10;;;28.00;69.60;;;;;;6153810;23;20897;-80
2021/09/06 07:02:35;;;;;;;24.27;20.40;;;26.60;72.10;;;;;;6180808;23;20443;-81
2021/09/06 07:05:05;;;;;;;20.00;17.87;;;26.20;77.00;;;;;;6179769;23;20437;-82
2021/09/06 07:07:33;;;;;;;17.13;15.37;;;27.30;74.40;;;;;;6154937;23;20417;-82
2021/09/06 07:09:59;;;;;;;18.93;15.73;;;27.90;72.00;;;;;;6154050;23;20835;-81
2021/09/06 07:12:26;;;;;;;16.33;14.70;;;28.50;69.30;;;;;;6180719;23;20418;-80
2021/09/06 07:14:53;;;;;;;16.13;13.70;;;28.80;67.40;;;;;;6151653;23;20908;-81
2021/09/06 07:17:20;;;;;;;16.03;14.23;;;29.30;65.90;;;;;;6154251;23;20900;-80
2021/09/06 07:19:46;;;;;;;15.33;13.87;;;30.10;64.00;;;;;;6182428;23;20444;-80
2021/09/06 07:22:43;;;;;;;;;;;;;;;;;;;;;
2021/09/06 07:25:35;;;;;;;15.80;14.30;;;32.40;56.60;;;;;;6186161;23;20504;-83
2021/09/06 07:28:19;;;;;;;14.70;13.30;;;32.60;55.30;;;;;;6176193;23;20417;-79
2021/09/06 07:31:08;;;;;;;14.33;12.93;;;32.60;54.00;;;;;;6177949;23;20402;-82
2021/09/06 07:33:44;;;;;;;13.93;12.60;;;32.20;54.80;;;;;;6176134;23;20426;-82
2021/09/06 07:36:14;;;;;;;14.73;13.33;;;32.10;54.80;;;;;;6177594;23;20949;-82
2021/09/06 07:38:44;;;;;;;14.17;12.80;;;31.90;54.90;;;;;;6178265;23;20458;-82
2021/09/06 07:41:12;;;;;;;13.73;12.40;;;32.80;53.90;;;;;;6176619;23;20438;-81
2021/09/06 07:43:39;;;;;;;15.07;12.70;;;33.10;52.20;;;;;;6178068;23;20409;-82
2021/09/06 07:46:05;;;;;;;13.70;12.60;;;32.50;53.10;;;;;;6179499;23;20413;-81
2021/09/06 07:48:32;;;;;;;14.27;12.97;;;31.90;53.60;;;;;;6176285;23;20421;-81
2021/09/06 07:50:59;;;;;;;15.47;14.17;;;32.20;53.80;;;;;;6178060;23;20441;-80
2021/09/06 07:53:27;;;;;;;14.07;12.83;;;32.90;52.70;;;;;;6176094;23;20410;-82
2021/09/06 07:55:54;;;;;;;16.30;13.87;;;33.60;50.90;;;;;;6178672;23;20747;-80
2021/09/06 07:58:20;;;;;;;13.80;12.50;;;33.40;50.60;;;;;;6179763;23;20420;-80
2021/09/06 08:00:50;;;;;;;14.40;13.07;;;33.80;49.90;;;;;;6178502;23;20445;-79
2021/09/06 08:03:17;;;;;;;14.07;12.77;;;33.10;50.70;;;;;;6176621;23;20417;-81
2021/09/06 08:05:44;;;;;;;15.57;14.17;;;33.30;50.30;;;;;;6180759;23;20423;-83
2021/09/06 08:08:11;;;;;;;14.57;13.20;;;33.30;50.10;;;;;;6177674;23;21360;-81
2021/09/06 08:10:38;;;;;;;15.73;14.20;;;33.30;50.30;;;;;;6180157;23;20487;-81
2021/09/06 08:13:05;;;;;;;16.33;14.93;;;32.90;50.80;;;;;;6178848;23;20426;-81
2021/09/06 08:15:32;;;;;;;13.73;12.53;;;32.60;50.80;;;;;;6180711;23;20426;-81
2021/09/06 08:17:59;;;;;;;15.87;13.30;;;32.20;51.70;;;;;;6192450;23;20414;-82
2021/09/06 08:20:26;;;;;;;15.57;14.10;;;32.40;52.00;;;;;;6194058;23;20446;-80
2021/09/06 08:22:52;;;;;;;15.43;13.93;;;32.40;51.30;;;;;;6175026;23;20501;-78
2021/09/06 08:25:19;;;;;;;15.10;13.60;;;32.30;51.60;;;;;;6176062;23;20434;-80
2021/09/06 08:27:46;;;;;;;15.70;14.20;;;33.10;50.50;;;;;;6174753;23;20398;-80
2021/09/06 08:30:13;;;;;;;16.73;15.00;;;33.10;49.80;;;;;;6177071;23;20417;-82
2021/09/06 08:32:43;;;;;;;17.03;15.23;;;33.10;49.90;;;;;;6175259;23;20430;-80
2021/09/06 08:35:11;;;;;;;16.80;15.10;;;33.30;49.90;;;;;;6176877;23;20438;-79
2021/09/06 08:37:39;;;;;;;16.10;14.60;;;33.30;49.70;;;;;;6177404;23;20406;-80
2021/09/06 08:40:08;;;;;;;16.67;15.10;;;33.00;50.00;;;;;;6177237;23;20403;-80
2021/09/06 08:42:37;;;;;;;16.30;14.80;;;33.30;49.90;;;;;;6175512;23;20406;-80
2021/09/06 08:45:08;;;;;;;15.77;14.23;;;33.60;49.10;;;;;;6175190;23;20437;-80
2021/09/06 08:47:36;;;;;;;15.80;14.30;;;33.60;48.60;;;;;;6177970;23;20406;-80
2021/09/06 08:50:07;;;;;;;17.07;14.53;;;33.20;49.60;;;;;;6179019;23;20410;-81
2021/09/06 08:52:34;;;;;;;15.50;14.07;;;33.30;49.00;;;;;;6177177;23;20501;-82
2021/09/06 08:55:01;;;;;;;15.80;14.30;;;32.70;49.60;;;;;;6177822;23;20457;-81
2021/09/06 08:57:28;;;;;;;16.60;15.00;;;30.90;52.10;;;;;;6178609;23;20410;-81
2021/09/06 09:00:02;;;;;;;15.37;13.97;;;30.50;53.70;;;;;;6176193;23;20418;-79
2021/09/06 09:02:34;;;;;;;15.33;13.60;;;29.40;54.90;;;;;;6178742;23;20430;-80
2021/09/06 09:05:08;;;;;;;14.93;13.33;;;28.60;57.70;;;;;;6177910;23;20497;-82
2021/09/06 09:07:39;;;;;;;15.10;13.63;;;29.80;56.20;;;;;;6176741;23;20464;-82
2021/09/06 09:10:09;;;;;;;14.67;13.17;;;30.60;54.40;;;;;;6180040;23;20397;-82
2021/09/06 09:12:39;;;;;;;13.60;12.40;;;31.40;52.40;;;;;;6179934;23;21319;-84
2021/09/06 09:15:08;;;;;;;14.00;12.70;;;32.50;50.40;;;;;;6179497;23;21011;-81
2021/09/06 09:17:36;;;;;;;13.63;12.43;;;32.80;48.60;;;;;;6178243;23;20469;-81
2021/09/06 09:20:06;;;;;;;15.10;13.70;;;32.50;48.80;;;;;;6177442;23;20417;-81
2021/09/06 09:22:35;;;;;;;13.50;12.27;;;32.30;48.90;;;;;;6180729;23;20948;-81
2021/09/06 09:25:05;;;;;;;14.63;13.23;;;32.70;48.30;;;;;;6179310;23;20422;-81
2021/09/06 09:27:35;;;;;;;14.27;12.97;;;32.60;48.30;;;;;;6181321;23;20412;-82
2021/09/06 09:30:09;;;;;;;14.47;13.00;;;32.70;48.40;;;;;;6178013;23;20433;-81
2021/09/06 09:32:37;;;;;;;14.43;13.13;;;32.40;48.90;;;;;;6179862;23;20462;-81
2021/09/06 09:35:05;;;;;;;14.40;13.07;;;31.80;49.90;;;;;;6178073;23;20437;-81
2021/09/06 09:37:34;;;;;;;15.07;13.67;;;32.90;49.10;;;;;;6116564;23;20499;-81
2021/09/06 09:40:05;;;;;;;14.83;13.50;;;33.90;46.90;;;;;;6177282;23;20413;-82
2021/09/06 09:42:33;;;;;;;13.60;12.20;;;33.60;47.00;;;;;;6181298;23;20458;-80
2021/09/06 09:45:00;;;;;;;13.70;12.50;;;33.80;46.60;;;;;;6178318;23;20426;-81
2021/09/06 09:47:27;;;;;;;14.63;13.23;;;33.40;47.70;;;;;;6189488;23;20417;-82
2021/09/06 09:49:57;;;;;;;14.20;13.00;;;33.60;46.70;;;;;;6200553;23;20410;-82
2021/09/06 09:52:24;;;;;;;15.17;13.67;;;33.60;47.00;;;;;;6201821;23;20421;-82
2021/09/06 09:54:53;;;;;;;13.30;11.93;;;33.90;45.80;;;;;;6202683;23;20434;-80
2021/09/06 09:57:24;;;;;;;12.83;11.63;;;33.60;46.60;;;;;;6190236;23;20413;-79
2021/09/06 09:59:52;;;;;;;13.33;12.03;;;33.80;46.40;;;;;;6181981;23;20429;-82
2021/09/06 10:02:31;;;;;;;13.83;12.60;;;34.10;45.40;;;;;;6180290;23;20446;-82
2021/09/06 10:05:05;;;;;;;13.50;12.30;;;33.80;45.60;;;;;;6179004;23;20835;-80
2021/09/06 10:07:35;;;;;;;13.50;12.20;;;33.80;46.30;;;;;;6179036;23;20406;-81
2021/09/06 10:10:21;;;;;;;59.10;19.73;;;33.70;46.20;;;;;;6179091;23;20387;-81
2021/09/06 10:13:03;;;;;;;18.67;13.17;;;33.60;44.90;;;;;;6180544;23;20420;-79
2021/09/06 10:15:29;;;;;;;51.60;19.70;;;33.80;44.30;;;;;;6181578;23;20430;-82
2021/09/06 10:17:56;;;;;;;20.90;14.10;;;33.50;45.00;;;;;;6181493;23;20421;-84
2021/09/06 10:20:25;;;;;;;13.63;12.20;;;33.50;45.60;;;;;;6180036;23;20406;-82
2021/09/06 10:23:07;;;;;;;12.87;11.70;;;33.20;45.80;;;;;;6175351;23;20449;-81
2021/09/06 10:25:36;;;;;;;12.20;11.10;;;33.40;45.90;;;;;;6179880;23;20426;-81
2021/09/06 10:28:05;;;;;;;12.97;11.07;;;33.40;45.60;;;;;;6180044;23;20917;-81
2021/09/06 10:30:34;;;;;;;12.20;11.00;;;33.60;45.20;;;;;;6178567;23;20406;-83
2021/09/06 10:33:01;;;;;;;12.70;11.50;;;33.40;45.20;;;;;;6178946;23;20499;-82
2021/09/06 10:35:28;;;;;;;15.17;13.57;;;33.50;45.10;;;;;;6181209;23;20425;-81
2021/09/06 10:38:05;;;;;;;13.93;12.73;;;33.60;46.20;;;;;;6180215;23;20428;-82
2021/09/06 10:40:38;;;;;;;12.97;11.87;;;34.50;43.90;;;;;;6179848;23;20402;-81
2021/09/06 10:43:20;;;;;;;13.30;11.57;;;34.20;43.70;;;;;;6178689;23;20427;-81
2021/09/06 10:45:50;;;;;;;12.20;11.10;;;33.50;44.40;;;;;;6177385;23;20442;-83
2021/09/06 10:48:20;;;;;;;12.83;10.57;;;33.40;44.60;;;;;;6179125;23;20583;-81
2021/09/06 10:50:48;;;;;;;13.50;12.30;;;33.30;44.80;;;;;;6179677;23;20402;-82
2021/09/06 10:53:19;;;;;;;13.03;11.93;;;33.50;44.90;;;;;;6176134;23;20390;-83
2021/09/06 10:55:51;;;;;;;11.83;10.63;;;33.50;44.70;;;;;;6176650;23;20713;-81
2021/09/06 10:58:21;;;;;;;11.90;10.90;;;33.20;45.00;;;;;;6178534;23;20409;-82
2021/09/06 11:00:50;;;;;;;12.20;11.20;;;33.40;45.20;;;;;;6176687;23;20936;-82
2021/09/06 11:03:17;;;;;;;12.70;11.60;;;33.50;45.60;;;;;;6178657;23;20390;-82
2021/09/06 11:05:52;;;;;;;12.83;11.73;;;33.20;46.10;;;;;;6179782;23;20436;-84
2021/09/06 11:08:31;;;;;;;13.87;12.77;;;33.80;45.70;;;;;;6179709;23;20405;-82
2021/09/06 11:11:00;;;;;;;13.27;12.07;;;33.80;45.70;;;;;;6176952;23;20390;-81
2021/09/06 11:13:45;;;;;;;14.40;12.10;;;33.40;45.40;;;;;;6177144;23;20406;-81
2021/09/06 11:16:14;;;;;;;12.93;11.60;;;33.00;47.30;;;;;;6176049;23;20433;-81
2021/09/06 11:18:43;;;;;;;14.00;12.80;;;32.70;47.10;;;;;;6173222;23;20417;-82
2021/09/06 11:21:10;;;;;;;14.27;12.97;;;33.00;47.00;;;;;;6176837;23;20519;-81
2021/09/06 11:23:40;;;;;;;14.03;12.70;;;33.20;46.90;;;;;;6177654;23;20512;-82
2021/09/06 11:26:09;;;;;;;13.97;12.73;;;33.50;46.10;;;;;;6174251;23;20417;-82
2021/09/06 11:28:45;;;;;;;13.63;12.53;;;33.10;46.20;;;;;;6175075;23;20441;-82
2021/09/06 11:31:18;;;;;;;14.70;12.67;;;33.20;46.00;;;;;;6174890;23;20425;-81
2021/09/06 11:33:59;;;;;;;13.77;12.57;;;33.60;45.20;;;;;;6145125;23;20457;-82
2021/09/06 11:36:27;;;;;;;13.97;12.77;;;33.40;44.60;;;;;;6145545;23;20524;-80
2021/09/06 11:38:54;;;;;;;15.80;14.20;;;33.10;45.70;;;;;;6151845;23;20411;-80
2021/09/06 11:41:22;;;;;;;15.27;13.67;;;33.00;46.30;;;;;;6147333;23;20445;-83
2021/09/06 11:43:49;;;;;;;14.43;13.23;;;32.60;46.70;;;;;;6147228;23;20446;-78
2021/09/06 11:46:17;;;;;;;14.63;13.40;;;32.70;46.70;;;;;;6146006;23;20815;-78
2021/09/06 11:48:47;;;;;;;16.33;14.93;;;32.70;46.30;;;;;;6145045;23;20421;-82
2021/09/06 11:51:15;;;;;;;15.40;14.00;;;32.50;46.90;;;;;;6148091;23;20910;-83
2021/09/06 11:53:55;;;;;;;14.23;12.87;;;32.70;46.30;;;;;;6145253;23;20429;-80
2021/09/06 11:56:21;;;;;;;15.40;14.07;;;33.20;46.00;;;;;;6122572;23;20395;-80
2021/09/06 11:58:49;;;;;;;14.87;13.57;;;33.20;46.20;;;;;;6147181;23;20442;-80
2021/09/06 12:01:16;;;;;;;17.00;15.43;;;32.60;46.90;;;;;;6147749;23;20961;-81
2021/09/06 12:03:46;;;;;;;16.47;14.73;;;32.10;47.20;;;;;;6144697;23;20935;-81
2021/09/06 12:06:19;;;;;;;15.77;14.30;;;31.60;47.70;;;;;;6145503;23;20858;-81
2021/09/06 12:08:55;;;;;;;16.30;14.73;;;31.20;48.40;;;;;;6146040;23;20487;-80
2021/09/06 12:11:43;;;;;;;14.77;13.27;;;30.90;48.90;;;;;;6147510;23;20475;-83
2021/09/06 12:14:11;;;;;;;16.13;14.53;;;30.70;49.60;;;;;;6145689;23;20477;-82
2021/09/06 12:16:38;;;;;;;16.37;14.70;;;30.60;50.20;;;;;;6146878;23;20418;-80
2021/09/06 12:19:18;;;;;;;16.80;15.23;;;31.00;50.00;;;;;;6145732;23;20411;-80
2021/09/06 12:21:46;;;;;;;15.10;13.60;;;31.00;49.70;;;;;;6144539;23;20557;-81
2021/09/06 12:24:13;;;;;;;14.53;12.90;;;31.00;50.20;;;;;;6145843;23;20508;-82
2021/09/06 12:26:48;;;;;;;15.73;14.00;;;31.20;49.90;;;;;;6146770;23;20927;-81
2021/09/06 12:29:30;;;;;;;18.10;16.30;;;31.40;49.10;;;;;;6145596;23;20438;-81
2021/09/06 12:31:58;;;;;;;17.10;15.40;;;31.30;49.10;;;;;;6145463;23;20429;-81
2021/09/06 12:34:26;;;;;;;16.17;14.57;;;30.80;50.00;;;;;;6144037;23;20447;-81
2021/09/06 12:36:58;;;;;;;15.67;14.00;;;30.90;50.10;;;;;;6143844;23;20438;-80
2021/09/06 12:39:27;;;;;;;15.87;14.40;;;31.10;50.00;;;;;;6145133;23;20415;-82
2021/09/06 12:41:54;;;;;;;17.00;15.20;;;31.30;49.40;;;;;;6146561;23;20457;-79
2021/09/06 12:44:22;;;;;;;13.63;12.50;;;31.60;49.10;;;;;;6144813;23;20489;-80